createdAt,value
2018-03-26T00:00:41.049Z,66.56
2018-03-26T00:02:34.109Z,66.56
2018-03-26T00:03:33.938Z,66.46
2018-03-26T00:05:27.000Z,66.46
2018-03-26T00:06:26.789Z,66.56
2018-03-26T00:08:19.844Z,66.18
2018-03-26T00:09:19.658Z,66.46
2018-03-26T00:11:12.775Z,66.37
2018-03-26T00:12:12.505Z,66.46
2018-03-26T00:14:05.907Z,66.46
2018-03-26T00:15:05.880Z,66.85
2018-03-26T00:16:59.300Z,66.66
2018-03-26T00:17:59.238Z,66.75
2018-03-26T00:19:52.312Z,66.75
2018-03-26T00:20:52.120Z,67.03
2018-03-26T00:22:45.618Z,67.13
2018-03-26T00:23:45.470Z,67.32
2018-03-26T00:25:38.847Z,67.41
2018-03-26T00:26:38.830Z,67.80
2018-03-26T00:28:32.224Z,67.32
2018-03-26T00:29:32.171Z,67.22
2018-03-26T00:31:25.087Z,67.67
2018-03-26T00:32:25.063Z,67.38
2018-03-26T00:34:18.428Z,68.24
2018-03-26T00:35:18.399Z,68.81
2018-03-26T00:37:11.825Z,68.81
2018-03-26T00:38:11.780Z,68.71
2018-03-26T00:40:05.193Z,69.38
2018-03-26T00:41:05.144Z,69.10
2018-03-26T00:42:59.536Z,68.90
2018-03-26T00:43:59.507Z,69.10
2018-03-26T00:45:52.449Z,69.95
2018-03-26T00:46:52.369Z,69.67
2018-03-26T00:48:45.256Z,69.85
2018-03-26T00:49:45.809Z,69.76
2018-03-26T00:51:38.231Z,70.14
2018-03-26T00:52:38.100Z,69.85
2018-03-26T00:54:31.607Z,70.62
2018-03-26T00:55:31.439Z,70.43
2018-03-26T00:57:24.363Z,70.33
2018-03-26T00:58:24.325Z,70.14
2018-03-26T01:00:17.838Z,70.43
2018-03-26T01:01:17.672Z,70.24
2018-03-26T01:03:10.596Z,70.33
2018-03-26T01:04:10.523Z,70.43
2018-03-26T01:06:03.926Z,70.24
2018-03-26T01:07:03.885Z,70.14
2018-03-26T01:08:56.785Z,69.48
2018-03-26T01:09:56.743Z,69.48
2018-03-26T01:11:49.635Z,69.76
2018-03-26T01:12:49.605Z,69.67
2018-03-26T01:14:42.517Z,70.05
2018-03-26T01:15:43.033Z,70.05
2018-03-26T01:17:35.459Z,69.57
2018-03-26T01:18:35.327Z,69.48
2018-03-26T01:20:28.228Z,69.48
2018-03-26T01:21:28.763Z,69.76
2018-03-26T01:23:21.600Z,69.85
2018-03-26T01:24:21.572Z,69.85
2018-03-26T01:26:15.044Z,70.05
2018-03-26T01:27:14.928Z,69.76
2018-03-26T01:29:08.307Z,70.43
2018-03-26T01:30:08.273Z,70.81
2018-03-26T01:32:01.170Z,70.52
2018-03-26T01:33:01.158Z,70.77
2018-03-26T01:34:54.046Z,71.15
2018-03-26T01:35:54.021Z,71.15
2018-03-26T01:37:47.667Z,70.87
2018-03-26T01:38:47.383Z,71.06
2018-03-26T01:40:40.429Z,71.15
2018-03-26T01:41:40.233Z,71.25
2018-03-26T01:43:33.660Z,71.25
2018-03-26T01:44:33.619Z,71.15
2018-03-26T01:46:27.205Z,71.34
2018-03-26T01:47:26.959Z,71.15
2018-03-26T01:49:20.358Z,71.25
2018-03-26T01:50:20.888Z,71.15
2018-03-26T01:52:13.704Z,71.72
2018-03-26T01:53:13.674Z,71.91
2018-03-26T01:55:07.145Z,72.30
2018-03-26T01:56:07.024Z,72.30
2018-03-26T01:58:00.415Z,72.39
2018-03-26T01:59:00.389Z,72.77
2018-03-26T02:00:53.274Z,72.86
2018-03-26T02:01:53.237Z,72.77
2018-03-26T02:03:46.188Z,73.06
2018-03-26T02:04:46.161Z,73.15
2018-03-26T02:06:40.065Z,73.34
2018-03-26T02:07:38.961Z,73.63
2018-03-26T02:09:31.867Z,73.72
2018-03-26T02:10:31.831Z,73.82
2018-03-26T02:12:24.825Z,74.10
2018-03-26T02:13:24.832Z,74.58
2018-03-26T02:15:18.258Z,74.48
2018-03-26T02:16:18.146Z,74.20
2018-03-26T02:18:11.041Z,74.58
2018-03-26T02:19:11.009Z,74.58
2018-03-26T02:21:03.916Z,74.67
2018-03-26T02:22:03.876Z,74.39
2018-03-26T02:23:57.253Z,74.39
2018-03-26T02:24:57.219Z,74.39
2018-03-26T02:26:50.156Z,74.77
2018-03-26T02:27:50.076Z,74.58
2018-03-26T02:29:42.974Z,74.48
2018-03-26T02:30:42.944Z,74.67
2018-03-26T02:32:35.849Z,75.05
2018-03-26T02:33:35.806Z,75.24
2018-03-26T02:35:28.709Z,75.34
2018-03-26T02:36:28.675Z,75.53
2018-03-26T02:38:21.575Z,74.77
2018-03-26T02:39:21.534Z,74.77
2018-03-26T02:41:14.437Z,75.53
2018-03-26T02:42:14.392Z,75.15
2018-03-26T02:44:07.863Z,75.34
2018-03-26T02:45:07.766Z,75.43
2018-03-26T02:47:00.769Z,75.24
2018-03-26T02:48:00.634Z,76.01
2018-03-26T02:49:54.006Z,76.01
2018-03-26T02:50:53.970Z,75.53
2018-03-26T02:52:46.856Z,75.72
2018-03-26T02:53:46.839Z,75.81
2018-03-26T02:55:39.887Z,75.72
2018-03-26T02:56:39.708Z,75.72
2018-03-26T02:58:32.589Z,76.20
2018-03-26T02:59:32.548Z,76.20
2018-03-26T03:01:25.439Z,76.39
2018-03-26T03:02:25.429Z,76.20
2018-03-26T03:04:18.797Z,76.57
2018-03-26T03:05:18.765Z,76.76
2018-03-26T03:07:11.669Z,77.15
2018-03-26T03:08:12.186Z,77.05
2018-03-26T03:10:05.042Z,77.15
2018-03-26T03:11:04.991Z,77.24
2018-03-26T03:12:58.515Z,77.72
2018-03-26T03:13:58.348Z,77.43
2018-03-26T03:15:51.743Z,77.81
2018-03-26T03:16:51.702Z,77.53
2018-03-26T03:18:45.081Z,77.91
2018-03-26T03:19:45.067Z,78.19
2018-03-26T03:21:37.966Z,78.57
2018-03-26T03:22:37.929Z,78.57
2018-03-26T03:24:31.084Z,78.57
2018-03-26T03:25:30.788Z,78.67
2018-03-26T03:27:24.157Z,78.77
2018-03-26T03:28:24.124Z,78.67
2018-03-26T03:30:17.143Z,79.43
2018-03-26T03:31:16.996Z,79.62
2018-03-26T03:33:10.123Z,79.14
2018-03-26T03:34:09.856Z,79.14
2018-03-26T03:36:02.779Z,79.52
2018-03-26T03:37:02.719Z,79.14
2018-03-26T03:38:55.667Z,79.62
2018-03-26T03:39:55.575Z,79.62
2018-03-26T03:41:49.098Z,80.00
2018-03-26T03:42:48.937Z,79.91
2018-03-26T03:44:42.463Z,80.57
2018-03-26T03:45:42.272Z,80.66
2018-03-26T03:47:35.248Z,80.29
2018-03-26T03:48:35.164Z,80.95
2018-03-26T03:50:28.043Z,81.24
2018-03-26T03:51:28.019Z,80.86
2018-03-26T03:53:21.191Z,81.24
2018-03-26T03:54:21.150Z,81.24
2018-03-26T03:56:14.624Z,80.95
2018-03-26T03:57:14.017Z,81.52
2018-03-26T03:59:06.938Z,81.33
2018-03-26T04:00:06.910Z,81.14
2018-03-26T04:02:00.389Z,81.43
2018-03-26T04:03:00.238Z,81.81
2018-03-26T04:04:53.140Z,82.09
2018-03-26T04:05:53.110Z,82.09
2018-03-26T04:07:46.569Z,82.00
2018-03-26T04:08:46.480Z,82.28
2018-03-26T04:10:39.968Z,82.28
2018-03-26T04:11:39.800Z,82.00
2018-03-26T04:13:32.695Z,82.57
2018-03-26T04:14:32.653Z,82.48
2018-03-26T04:16:26.045Z,82.38
2018-03-26T04:17:26.584Z,82.57
2018-03-26T04:19:19.420Z,82.76
2018-03-26T04:20:19.948Z,82.57
2018-03-26T04:22:12.893Z,83.23
2018-03-26T04:23:12.737Z,83.23
2018-03-26T04:25:05.807Z,83.23
2018-03-26T04:26:05.581Z,83.71
2018-03-26T04:27:58.467Z,83.52
2018-03-26T04:28:58.442Z,83.52
2018-03-26T04:30:54.247Z,83.52
2018-03-26T04:31:51.861Z,83.81
2018-03-26T04:33:45.282Z,83.81
2018-03-26T04:34:44.786Z,83.81
2018-03-26T04:36:37.888Z,84.09
2018-03-26T04:37:37.649Z,84.00
2018-03-26T04:39:30.698Z,84.28
2018-03-26T04:40:30.497Z,84.38
2018-03-26T04:42:23.583Z,84.66
2018-03-26T04:43:23.363Z,84.76
2018-03-26T04:45:16.766Z,84.76
2018-03-26T04:46:16.721Z,84.76
2018-03-26T04:48:09.951Z,84.38
2018-03-26T04:49:09.615Z,85.33
2018-03-26T04:51:03.867Z,85.14
2018-03-26T04:52:02.924Z,85.04
2018-03-26T04:53:56.686Z,85.71
2018-03-26T04:54:56.340Z,87.99
2018-03-26T04:56:50.126Z,88.66
2018-03-26T04:57:49.776Z,88.56
2018-03-26T04:59:44.071Z,88.66
2018-03-26T05:00:43.150Z,87.04
2018-03-26T05:02:38.448Z,87.32
2018-03-26T05:03:36.394Z,86.76
2018-03-26T05:05:29.490Z,86.94
2018-03-26T05:06:29.268Z,87.52
2018-03-26T05:08:23.178Z,88.37
2018-03-26T05:09:22.711Z,86.38
2018-03-26T05:11:17.545Z,86.66
2018-03-26T05:12:16.017Z,86.94
2018-03-26T05:14:09.705Z,87.04
2018-03-26T05:15:09.312Z,86.09
2018-03-26T05:17:03.136Z,86.32
2018-03-26T05:18:02.940Z,87.04
2018-03-26T05:19:58.739Z,85.47
2018-03-26T05:20:56.130Z,84.85
2018-03-26T05:22:50.467Z,85.14
2018-03-26T05:23:49.549Z,86.38
2018-03-26T05:25:43.207Z,87.52
2018-03-26T05:26:42.829Z,87.71
2018-03-26T05:28:36.609Z,86.18
2018-03-26T05:29:36.230Z,86.28
2018-03-26T05:31:29.627Z,87.32
2018-03-26T05:32:29.039Z,86.85
2018-03-26T05:34:23.021Z,86.28
2018-03-26T05:35:22.425Z,87.23
2018-03-26T05:37:15.836Z,86.18
2018-03-26T05:38:15.844Z,85.42
2018-03-26T05:40:10.218Z,85.42
2018-03-26T05:41:09.147Z,85.61
2018-03-26T05:43:02.326Z,85.52
2018-03-26T05:44:02.574Z,85.24
2018-03-26T05:45:55.735Z,85.42
2018-03-26T05:46:55.416Z,85.99
2018-03-26T05:48:48.836Z,84.95
2018-03-26T05:49:48.765Z,85.33
2018-03-26T05:51:41.851Z,85.61
2018-03-26T05:52:41.694Z,86.57
2018-03-26T05:54:35.056Z,86.18
2018-03-26T05:55:35.588Z,84.95
2018-03-26T05:57:31.013Z,85.24
2018-03-26T05:58:29.826Z,85.61
2018-03-26T06:00:24.249Z,84.56
2018-03-26T06:01:22.914Z,83.33
2018-03-26T06:03:15.731Z,84.28
2018-03-26T06:04:15.764Z,85.61
2018-03-26T06:06:08.593Z,84.66
2018-03-26T06:07:08.588Z,84.00
2018-03-26T06:09:01.460Z,82.95
2018-03-26T06:10:01.439Z,83.52
2018-03-26T06:11:55.767Z,82.57
2018-03-26T06:12:55.351Z,83.23
2018-03-26T06:14:50.225Z,83.04
2018-03-26T06:15:47.864Z,83.14
2018-03-26T06:17:40.789Z,83.33
2018-03-26T06:18:40.531Z,83.42
2018-03-26T06:20:34.915Z,83.42
2018-03-26T06:21:35.226Z,82.76
2018-03-26T06:23:28.507Z,82.95
2018-03-26T06:24:28.257Z,82.67
2018-03-26T06:26:22.504Z,82.57
2018-03-26T06:27:21.137Z,82.57
2018-03-26T06:29:14.305Z,82.76
2018-03-26T06:30:13.978Z,82.57
2018-03-26T06:32:09.325Z,83.42
2018-03-26T06:33:08.628Z,83.23
2018-03-26T06:35:01.618Z,83.23
2018-03-26T06:36:01.223Z,82.95
2018-03-26T06:37:55.318Z,82.76
2018-03-26T06:38:54.721Z,82.86
2018-03-26T06:41:11.638Z,82.28
2018-03-26T06:42:11.682Z,82.09
2018-03-26T06:44:05.774Z,82.28
2018-03-26T06:45:05.236Z,81.90
2018-03-26T06:46:58.686Z,82.00
2018-03-26T06:47:59.108Z,82.19
2018-03-26T06:49:52.057Z,81.62
2018-03-26T06:50:52.499Z,81.62
2018-03-26T06:52:45.060Z,82.00
2018-03-26T06:54:59.292Z,81.52
2018-03-26T06:55:58.390Z,81.62
2018-03-26T06:57:52.430Z,81.52
2018-03-26T06:58:51.906Z,81.62
2018-03-26T07:00:45.869Z,81.52
2018-03-26T07:01:45.324Z,81.81
2018-03-26T07:03:38.633Z,81.52
2018-03-26T07:04:38.594Z,81.24
2018-03-26T07:06:31.413Z,81.62
2018-03-26T07:07:31.820Z,82.19
2018-03-26T07:09:24.902Z,81.90
2018-03-26T07:10:24.452Z,81.81
2018-03-26T07:12:19.272Z,82.38
2018-03-26T07:13:17.908Z,82.48
2018-03-26T07:15:11.660Z,84.00
2018-03-26T07:16:13.823Z,83.81
2018-03-26T07:18:04.674Z,83.37
2018-03-26T07:19:04.546Z,82.32
2018-03-26T07:20:58.379Z,80.80
2018-03-26T07:21:58.344Z,80.99
2018-03-26T07:23:52.323Z,80.71
2018-03-26T07:24:53.267Z,80.90
2018-03-26T07:26:45.009Z,80.52
2018-03-26T07:27:46.104Z,80.61
2018-03-26T07:29:54.767Z,79.75
2018-03-26T07:30:54.403Z,80.13
2018-03-26T07:32:48.679Z,79.85
2018-03-26T07:33:47.773Z,79.32
2018-03-26T07:35:41.681Z,78.75
2018-03-26T07:36:41.151Z,78.85
2018-03-26T07:38:35.952Z,78.85
2018-03-26T07:39:34.891Z,79.03
2018-03-26T07:41:28.275Z,78.75
2018-03-26T07:42:28.304Z,78.37
2018-03-26T07:44:22.671Z,78.37
2018-03-26T07:45:21.696Z,78.17
2018-03-26T07:47:14.976Z,77.80
2018-03-26T07:48:14.958Z,77.98
2018-03-26T07:50:29.746Z,76.98
2018-03-26T07:51:30.212Z,76.79
2018-03-26T07:53:23.202Z,76.88
2018-03-26T07:54:22.737Z,76.79
2018-03-26T07:56:17.278Z,76.79
2018-03-26T07:57:16.369Z,76.59
2018-03-26T07:59:09.749Z,76.31
2018-03-26T08:00:09.409Z,76.21
2018-03-26T08:02:03.131Z,76.31
2018-03-26T08:03:03.364Z,76.21
2018-03-26T08:04:56.646Z,76.21
2018-03-26T08:05:56.275Z,75.64
2018-03-26T08:07:49.649Z,75.68
2018-03-26T08:08:49.592Z,75.40
2018-03-26T08:10:43.099Z,75.40
2018-03-26T08:11:43.041Z,75.11
2018-03-26T08:13:35.878Z,74.73
2018-03-26T08:14:35.548Z,74.73
2018-03-26T08:16:29.229Z,75.11
2018-03-26T08:17:28.804Z,74.92
2018-03-26T08:19:22.113Z,75.20
2018-03-26T08:20:22.069Z,74.73
2018-03-26T08:22:15.039Z,75.01
2018-03-26T08:23:15.532Z,75.59
2018-03-26T08:25:08.391Z,75.59
2018-03-26T08:26:08.025Z,75.40
2018-03-26T08:28:16.609Z,74.73
2018-03-26T08:29:16.123Z,75.20
2018-03-26T08:31:10.063Z,74.35
2018-03-26T08:32:09.516Z,75.01
2018-03-26T08:34:04.004Z,75.01
2018-03-26T08:35:03.033Z,75.01
2018-03-26T08:36:56.844Z,74.73
2018-03-26T08:37:57.314Z,75.11
2018-03-26T08:39:49.941Z,74.73
2018-03-26T08:40:49.695Z,74.73
2018-03-26T08:42:48.278Z,74.29
2018-03-26T08:43:43.709Z,74.48
2018-03-26T08:45:37.457Z,74.29
2018-03-26T08:46:37.178Z,73.81
2018-03-26T08:48:31.358Z,72.86
2018-03-26T08:49:30.500Z,72.96
2018-03-26T08:51:25.226Z,72.61
2018-03-26T08:52:23.788Z,71.84
2018-03-26T08:54:17.600Z,71.18
2018-03-26T08:55:18.061Z,70.79
2018-03-26T08:57:11.444Z,70.70
2018-03-26T08:58:10.651Z,71.08
2018-03-26T09:00:05.457Z,70.79
2018-03-26T09:01:05.834Z,70.98
2018-03-26T09:02:58.793Z,70.61
2018-03-26T09:03:58.392Z,70.51
2018-03-26T09:05:55.179Z,70.13
2018-03-26T09:06:56.056Z,69.74
2018-03-26T09:08:50.661Z,70.61
2018-03-26T09:09:50.153Z,70.98
2018-03-26T09:11:44.463Z,70.89
2018-03-26T09:12:43.896Z,70.32
2018-03-26T09:14:38.874Z,70.13
2018-03-26T09:15:37.886Z,69.84
2018-03-26T09:17:31.800Z,69.74
2018-03-26T09:18:31.627Z,69.84
2018-03-26T09:20:32.292Z,70.22
2018-03-26T09:21:28.535Z,70.89
2018-03-26T09:23:22.999Z,71.37
2018-03-26T09:24:20.590Z,71.56
2018-03-26T09:26:15.368Z,71.27
2018-03-26T09:27:15.624Z,71.33
2018-03-26T09:29:07.991Z,71.37
2018-03-26T09:30:08.334Z,71.27
2018-03-26T09:32:01.671Z,71.27
2018-03-26T09:33:02.115Z,71.46
2018-03-26T09:34:54.641Z,71.18
2018-03-26T09:35:54.642Z,71.56
2018-03-26T09:37:48.996Z,71.18
2018-03-26T09:38:48.952Z,71.08
2018-03-26T09:40:46.929Z,70.51
2018-03-26T09:41:46.764Z,69.97
2018-03-26T09:43:44.797Z,69.87
2018-03-26T09:44:44.768Z,69.97
2018-03-26T09:46:38.073Z,69.59
2018-03-26T09:47:38.077Z,69.27
2018-03-26T09:49:30.942Z,70.70
2018-03-26T09:50:31.488Z,70.70
2018-03-26T09:52:25.346Z,70.70
2018-03-26T09:53:26.845Z,71.08
2018-03-26T09:55:18.842Z,69.56
2018-03-26T09:56:18.299Z,68.88
2018-03-26T09:58:12.029Z,68.70
2018-03-26T09:59:12.020Z,70.98
2018-03-26T10:01:05.106Z,70.03
2018-03-26T10:02:04.597Z,68.88
2018-03-26T10:04:03.028Z,67.65
2018-03-26T10:05:02.933Z,66.88
2018-03-26T10:06:56.427Z,64.21
2018-03-26T10:07:55.763Z,63.64
2018-03-26T10:09:49.127Z,64.31
2018-03-26T10:10:49.129Z,64.40
2018-03-26T10:12:42.488Z,64.69
2018-03-26T10:13:44.624Z,63.83
2018-03-26T10:15:36.473Z,61.92
2018-03-26T10:16:35.415Z,62.11
2018-03-26T10:18:29.227Z,62.49
2018-03-26T10:20:43.894Z,62.40
2018-03-26T10:21:43.170Z,61.89
2018-03-26T10:23:36.968Z,62.08
2018-03-26T10:24:36.933Z,62.18
2018-03-26T10:26:31.942Z,62.11
2018-03-26T10:27:31.353Z,62.88
2018-03-26T10:29:24.684Z,62.02
2018-03-26T10:30:24.675Z,61.44
2018-03-26T10:32:18.100Z,60.49
2018-03-26T10:33:17.693Z,60.58
2018-03-26T10:35:11.590Z,60.97
2018-03-26T10:36:11.065Z,60.97
2018-03-26T10:38:04.552Z,60.78
2018-03-26T10:39:05.374Z,60.02
2018-03-26T10:41:00.939Z,59.82
2018-03-26T10:41:57.459Z,59.16
2018-03-26T10:43:51.211Z,60.68
2018-03-26T10:44:51.145Z,61.35
2018-03-26T10:46:44.173Z,60.11
2018-03-26T10:47:43.741Z,59.44
2018-03-26T10:50:28.171Z,57.94
2018-03-26T10:51:27.746Z,57.37
2018-03-26T10:53:22.215Z,57.75
2018-03-26T10:54:22.186Z,57.65
2018-03-26T10:56:20.753Z,56.70
2018-03-26T10:57:14.258Z,56.41
2018-03-26T10:59:20.822Z,55.46
2018-03-26T11:00:21.605Z,56.04
2018-03-26T11:02:15.118Z,56.32
2018-03-26T11:03:14.181Z,56.41
2018-03-26T11:05:09.342Z,56.87
2018-03-26T11:06:10.073Z,56.77
2018-03-26T11:08:05.313Z,57.63
2018-03-26T11:09:01.528Z,57.82
2018-03-26T11:10:59.497Z,57.43
2018-03-26T11:11:58.236Z,57.06
2018-03-26T11:15:33.057Z,57.09
2018-03-26T11:16:30.529Z,56.32
2018-03-26T11:18:29.114Z,56.13
2018-03-26T11:19:27.163Z,56.13
2018-03-26T11:21:17.615Z,54.99
2018-03-26T11:22:17.218Z,53.27
2018-03-26T11:24:16.040Z,53.55
2018-03-26T11:25:15.951Z,53.74
2018-03-26T11:27:22.839Z,54.32
2018-03-26T11:28:22.782Z,54.32
2018-03-26T11:30:18.561Z,54.22
2018-03-26T11:31:16.117Z,54.03
2018-03-26T11:33:12.726Z,52.98
2018-03-26T11:34:13.029Z,52.03
2018-03-26T11:36:05.983Z,52.50
2018-03-26T11:37:07.867Z,53.17
2018-03-26T11:38:58.846Z,52.79
2018-03-26T11:39:58.783Z,53.17
2018-03-26T11:41:52.408Z,52.12
2018-03-26T11:42:51.780Z,50.98
2018-03-26T11:44:45.578Z,50.12
2018-03-26T11:45:45.132Z,49.57
2018-03-26T11:47:40.079Z,49.38
2018-03-26T11:48:40.074Z,49.57
2018-03-26T11:50:44.282Z,49.02
2018-03-26T11:51:44.229Z,47.78
2018-03-26T11:53:37.912Z,46.63
2018-03-26T11:54:37.198Z,46.72
2018-03-26T11:56:30.965Z,45.20
2018-03-26T11:57:30.491Z,44.93
2018-03-26T11:59:24.438Z,44.81
2018-03-26T12:00:23.929Z,46.06
2018-03-26T12:02:18.050Z,46.46
2018-03-26T12:03:17.052Z,46.84
2018-03-26T12:05:10.869Z,45.89
2018-03-26T12:06:10.407Z,45.39
2018-03-26T12:08:07.345Z,45.39
2018-03-26T12:09:04.791Z,46.44
2018-03-26T12:10:57.594Z,44.36
2018-03-26T12:11:57.242Z,43.59
2018-03-26T12:13:55.456Z,42.81
2018-03-26T12:14:54.565Z,43.09
2018-03-26T12:16:48.869Z,43.95
2018-03-26T12:17:48.383Z,44.05
2018-03-26T12:19:55.985Z,45.10
2018-03-26T12:20:55.528Z,44.05
2018-03-26T12:22:49.321Z,43.48
2018-03-26T12:23:48.917Z,44.05
2018-03-26T12:25:42.327Z,44.05
2018-03-26T12:26:43.227Z,43.95
2018-03-26T12:28:35.272Z,44.05
2018-03-26T12:29:35.169Z,44.34
2018-03-26T12:31:30.880Z,44.62
2018-03-26T12:32:31.212Z,44.91
2018-03-26T12:34:24.622Z,45.10
2018-03-26T12:35:24.542Z,45.87
2018-03-26T12:37:18.869Z,45.77
2018-03-26T12:38:17.951Z,44.43
2018-03-26T12:40:11.854Z,44.24
2018-03-26T12:41:13.941Z,45.51
2018-03-26T12:43:56.292Z,45.39
2018-03-26T12:44:56.295Z,45.39
2018-03-26T12:46:50.138Z,45.87
2018-03-26T12:47:50.034Z,46.06
2018-03-26T12:49:46.094Z,46.06
2018-03-26T12:50:46.006Z,46.82
2018-03-26T12:52:39.414Z,46.32
2018-03-26T12:53:39.779Z,46.03
2018-03-26T12:55:33.331Z,47.47
2018-03-26T12:56:33.290Z,48.23
2018-03-26T12:58:26.326Z,49.85
2018-03-26T12:59:25.804Z,50.24
2018-03-26T13:01:21.896Z,50.33
2018-03-26T13:02:22.192Z,50.40
2018-03-26T13:04:18.138Z,50.69
2018-03-26T13:05:18.109Z,51.54
2018-03-26T13:07:11.621Z,52.03
2018-03-26T13:08:10.581Z,52.03
2018-03-26T13:10:04.341Z,51.07
2018-03-26T13:11:04.117Z,50.40
2018-03-26T13:12:57.737Z,50.31
2018-03-26T13:13:57.406Z,49.44
2018-03-26T13:15:51.044Z,48.21
2018-03-26T13:16:51.114Z,48.49
2018-03-26T13:18:45.435Z,48.21
2018-03-26T13:19:45.027Z,48.30
2018-03-26T13:21:38.870Z,47.92
2018-03-26T13:22:38.412Z,46.48
2018-03-26T13:24:33.624Z,45.72
2018-03-26T13:25:33.690Z,46.01
2018-03-26T13:27:27.652Z,46.68
2018-03-26T13:28:25.765Z,46.58
2018-03-26T13:30:19.162Z,48.49
2018-03-26T13:31:19.592Z,48.97
2018-03-26T13:33:13.956Z,50.31
2018-03-26T13:34:14.108Z,50.31
2018-03-26T13:36:07.560Z,49.83
2018-03-26T13:37:06.923Z,50.09
2018-03-26T13:39:00.785Z,50.38
2018-03-26T13:40:00.242Z,50.38
2018-03-26T13:41:53.894Z,50.67
2018-03-26T13:42:53.954Z,50.67
2018-03-26T13:44:55.075Z,50.47
2018-03-26T13:45:54.300Z,50.57
2018-03-26T13:47:48.698Z,51.04
2018-03-26T13:50:02.101Z,51.71
2018-03-26T13:51:01.596Z,51.04
2018-03-26T13:52:55.429Z,51.14
2018-03-26T13:53:55.102Z,51.14
2018-03-26T13:55:49.391Z,50.95
2018-03-26T13:56:48.332Z,51.04
2018-03-26T13:58:42.121Z,50.09
2018-03-26T13:59:41.769Z,50.28
2018-03-26T14:01:35.551Z,50.02
2018-03-26T14:02:35.130Z,50.12
2018-03-26T14:04:28.090Z,50.31
2018-03-26T14:05:28.407Z,50.12
2018-03-26T14:07:21.818Z,50.12
2018-03-26T14:08:21.405Z,50.40
2018-03-26T14:10:15.269Z,49.73
2018-03-26T14:11:15.147Z,50.31
2018-03-26T14:13:08.548Z,49.93
2018-03-26T14:14:08.541Z,49.16
2018-03-26T14:16:02.951Z,49.07
2018-03-26T14:17:02.478Z,49.16
2018-03-26T14:18:56.322Z,50.31
2018-03-26T14:19:57.356Z,50.31
2018-03-26T14:21:49.629Z,50.71
2018-03-26T14:22:49.872Z,50.31
2018-03-26T14:24:47.120Z,48.88
2018-03-26T14:25:47.188Z,47.44
2018-03-26T14:27:40.958Z,44.51
2018-03-26T14:28:40.879Z,43.33
2018-03-26T14:30:34.798Z,44.01
2018-03-26T14:31:33.746Z,44.02
2018-03-26T14:33:26.715Z,43.62
2018-03-26T14:34:26.669Z,43.53
2018-03-26T14:36:20.561Z,44.60
2018-03-26T14:37:21.022Z,45.37
2018-03-26T14:39:26.463Z,45.53
2018-03-26T14:40:25.120Z,45.92
2018-03-26T14:42:25.475Z,46.13
2018-03-26T14:43:25.529Z,46.13
2018-03-26T14:45:18.398Z,45.56
2018-03-26T14:46:18.522Z,45.08
2018-03-26T14:48:12.709Z,45.37
2018-03-26T14:49:11.710Z,44.70
2018-03-26T14:51:05.204Z,43.55
2018-03-26T14:52:05.217Z,43.74
2018-03-26T14:54:00.142Z,42.88
2018-03-26T14:54:59.485Z,42.79
2018-03-26T14:56:52.789Z,42.31
2018-03-26T14:57:52.414Z,42.31
2018-03-26T14:59:48.910Z,41.64
2018-03-26T15:00:46.198Z,42.69
2018-03-26T15:02:39.601Z,43.17
2018-03-26T15:03:41.126Z,42.69
2018-03-26T15:05:34.472Z,42.97
2018-03-26T15:06:33.581Z,42.77
2018-03-26T15:08:27.899Z,42.69
2018-03-26T15:09:27.326Z,42.88
2018-03-26T15:11:20.743Z,42.88
2018-03-26T15:12:20.267Z,42.88
2018-03-26T15:14:14.042Z,42.88
2018-03-26T15:15:13.618Z,43.55
2018-03-26T15:17:07.400Z,43.07
2018-03-26T15:18:07.433Z,42.97
2018-03-26T15:20:04.942Z,42.31
2018-03-26T15:21:06.279Z,42.60
2018-03-26T15:22:58.712Z,42.96
2018-03-26T15:23:58.227Z,42.38
2018-03-26T15:25:51.965Z,43.33
2018-03-26T15:26:51.997Z,43.15
2018-03-26T15:28:45.431Z,42.86
2018-03-26T15:29:45.014Z,42.77
2018-03-26T15:31:39.359Z,43.15
2018-03-26T15:32:38.737Z,42.29
2018-03-26T15:34:32.164Z,42.77
2018-03-26T15:35:32.134Z,42.86
2018-03-26T15:37:25.505Z,42.77
2018-03-26T15:38:25.481Z,43.13
2018-03-26T15:40:18.431Z,43.89
2018-03-26T15:41:17.879Z,43.03
2018-03-26T15:43:11.739Z,43.60
2018-03-26T15:44:11.652Z,43.41
2018-03-26T15:46:05.497Z,44.27
2018-03-26T15:47:05.037Z,44.56
2018-03-26T15:49:01.096Z,45.42
2018-03-26T15:49:59.334Z,45.89
2018-03-26T15:51:54.248Z,46.18
2018-03-26T15:52:52.955Z,46.37
2018-03-26T15:54:45.854Z,46.56
2018-03-26T15:56:59.556Z,46.66
2018-03-26T15:57:59.127Z,46.63
2018-03-26T15:59:53.170Z,47.49
2018-03-26T16:00:52.592Z,46.54
2018-03-26T16:02:46.405Z,47.39
2018-03-26T16:03:46.300Z,47.20
2018-03-26T16:05:39.278Z,47.11
2018-03-26T16:06:39.827Z,47.87
2018-03-26T16:08:32.217Z,48.92
2018-03-26T16:09:32.135Z,49.21
2018-03-26T16:11:25.527Z,49.87
2018-03-26T16:12:25.503Z,50.16
2018-03-26T16:14:18.660Z,50.63
2018-03-26T16:16:32.276Z,50.92
2018-03-26T16:17:32.293Z,51.21
2018-03-26T16:19:25.055Z,51.78
2018-03-26T16:20:25.416Z,51.97
2018-03-26T16:22:18.399Z,51.88
2018-03-26T16:23:18.343Z,51.88
2018-03-26T16:25:11.658Z,50.92
2018-03-26T16:26:12.706Z,50.73
2018-03-26T16:28:04.947Z,50.73
2018-03-26T16:29:04.612Z,50.73
2018-03-26T16:30:58.957Z,50.45
2018-03-26T16:31:58.566Z,50.63
2018-03-26T16:33:52.338Z,50.83
2018-03-26T16:34:51.915Z,51.21
2018-03-26T16:36:45.752Z,50.83
2018-03-26T16:37:45.330Z,51.78
2018-03-26T16:39:53.713Z,52.16
2018-03-26T16:40:53.347Z,52.45
2018-03-26T16:42:47.367Z,52.55
2018-03-26T16:43:46.738Z,52.16
2018-03-26T16:45:40.621Z,51.59
2018-03-26T16:46:40.516Z,51.68
2018-03-26T16:48:33.085Z,51.50
2018-03-26T16:49:34.001Z,51.40
2018-03-26T16:51:26.370Z,51.78
2018-03-26T16:52:26.436Z,52.26
2018-03-26T16:54:19.680Z,51.68
2018-03-26T16:55:19.676Z,52.26
2018-03-26T16:57:14.008Z,52.04
2018-03-26T16:58:13.591Z,52.04
2018-03-26T17:00:09.505Z,52.61
2018-03-26T17:02:27.180Z,53.00
2018-03-26T17:03:26.925Z,52.90
2018-03-26T17:05:20.190Z,53.28
2018-03-26T17:06:20.194Z,52.80
2018-03-26T17:08:13.637Z,53.09
2018-03-26T17:09:13.524Z,53.19
2018-03-26T17:11:06.441Z,53.66
2018-03-26T17:12:06.406Z,54.04
2018-03-26T17:13:59.830Z,53.38
2018-03-26T17:14:59.765Z,52.23
2018-03-26T17:16:52.797Z,52.23
2018-03-26T17:17:53.086Z,52.52
2018-03-26T17:19:49.872Z,52.61
2018-03-26T17:20:49.453Z,52.90
2018-03-26T17:22:42.503Z,53.09
2018-03-26T17:23:41.884Z,53.09
2018-03-26T17:25:36.878Z,52.80
2018-03-26T17:26:36.266Z,53.09
2018-03-26T17:28:32.007Z,53.19
2018-03-26T17:29:30.056Z,52.61
2018-03-26T17:31:23.176Z,52.42
2018-03-26T17:32:23.077Z,52.61
2018-03-26T17:34:16.461Z,53.09
2018-03-26T17:35:16.452Z,53.09
2018-03-26T17:37:11.246Z,53.00
2018-03-26T17:38:10.791Z,52.87
2018-03-26T17:40:07.116Z,53.64
2018-03-26T17:41:04.616Z,53.35
2018-03-26T17:42:57.970Z,53.83
2018-03-26T17:43:57.950Z,53.83
2018-03-26T17:45:51.354Z,53.83
2018-03-26T17:46:52.364Z,54.30
2018-03-26T17:48:45.201Z,54.78
2018-03-26T17:49:44.605Z,54.97
2018-03-26T17:51:38.206Z,55.54
2018-03-26T17:52:38.082Z,54.88
2018-03-26T17:54:31.460Z,54.94
2018-03-26T17:55:31.105Z,55.16
2018-03-26T17:57:24.866Z,55.80
2018-03-26T17:58:24.452Z,56.02
2018-03-26T18:00:18.134Z,56.09
2018-03-26T18:01:18.202Z,55.90
2018-03-26T18:03:12.322Z,56.09
2018-03-26T18:04:11.175Z,56.18
2018-03-26T18:06:04.960Z,56.75
2018-03-26T18:07:03.945Z,56.94
2018-03-26T18:08:57.653Z,56.09
2018-03-26T18:09:57.895Z,56.46
2018-03-26T18:11:51.676Z,56.75
2018-03-26T18:12:50.670Z,57.13
2018-03-26T18:14:44.362Z,56.85
2018-03-26T18:15:44.266Z,57.13
2018-03-26T18:17:37.805Z,56.75
2018-03-26T18:18:37.931Z,57.51
2018-03-26T18:20:31.069Z,57.32
2018-03-26T18:21:30.772Z,57.23
2018-03-26T18:23:24.498Z,57.13
2018-03-26T18:24:24.870Z,57.32
2018-03-26T18:26:18.383Z,57.70
2018-03-26T18:27:18.161Z,57.60
2018-03-26T18:29:11.248Z,57.99
2018-03-26T18:30:11.109Z,58.84
2018-03-26T18:32:05.499Z,57.87
2018-03-26T18:33:06.415Z,58.15
2018-03-26T18:34:57.894Z,58.53
2018-03-26T18:35:56.736Z,59.20
2018-03-26T18:37:52.008Z,59.48
2018-03-26T18:38:51.665Z,59.29
2018-03-26T18:40:44.523Z,59.86
2018-03-26T18:41:43.801Z,59.77
2018-03-26T18:43:37.138Z,60.34
2018-03-26T18:44:36.685Z,60.15
2018-03-26T18:46:30.328Z,60.53
2018-03-26T18:47:30.041Z,60.53